Aviation Digital Data Service (ADDS)

Output produced by METARs form (2143 UTC 31 August 2016)
found at http://aviationweather.gov/adds/metars/
 
KSWF 311727Z 3118/0124 VRB05KT P6SM BKN150 
     FM010400 VRB03KT 6SM -SHRA BR BKN050 
     TEMPO 0106/0110 5SM -SHRA BR BKN030 
     FM011400 VRB04KT P6SM VCSH BKN050 AMD NOT SKED